createdAt,value
2023-05-21T00:02:19.885Z,61.14
2023-05-21T00:04:46.532Z,61.42
2023-05-21T00:07:13.472Z,61.62
2023-05-21T00:09:39.986Z,61.59
2023-05-21T00:12:07.881Z,61.60
2023-05-21T00:14:35.137Z,62.17
2023-05-21T00:17:01.605Z,62.02
2023-05-21T00:19:28.155Z,61.93
2023-05-21T00:21:54.794Z,62.15
2023-05-21T00:24:21.251Z,61.95
2023-05-21T00:26:47.693Z,62.04
2023-05-21T00:29:14.214Z,62.06
2023-05-21T00:31:40.911Z,62.40
2023-05-21T00:34:07.455Z,62.71
2023-05-21T00:36:34.635Z,62.65
2023-05-21T00:39:02.366Z,62.63
2023-05-21T00:41:30.281Z,63.04
2023-05-21T00:44:00.348Z,62.93
2023-05-21T00:46:28.574Z,62.83
2023-05-21T00:48:58.008Z,63.03
2023-05-21T00:51:25.927Z,63.18
2023-05-21T00:53:53.102Z,63.31
2023-05-21T00:56:22.739Z,63.43
2023-05-21T00:58:51.861Z,63.90
2023-05-21T01:01:19.486Z,63.74
2023-05-21T01:03:48.757Z,64.16
2023-05-21T01:06:16.067Z,63.90
2023-05-21T01:08:42.958Z,63.93
2023-05-21T01:11:10.809Z,64.17
2023-05-21T01:13:40.900Z,64.21
2023-05-21T01:16:09.361Z,64.49
2023-05-21T01:18:37.763Z,64.46
2023-05-21T01:21:05.092Z,64.55
2023-05-21T01:23:31.937Z,64.45
2023-05-21T01:25:58.552Z,64.77
2023-05-21T01:28:25.069Z,64.71
2023-05-21T01:30:51.923Z,64.99
2023-05-21T01:33:29.552Z,64.70
2023-05-21T01:36:02.398Z,64.95
2023-05-21T01:38:43.632Z,65.13
2023-05-21T01:41:14.124Z,65.24
2023-05-21T01:43:43.418Z,65.20
2023-05-21T01:46:12.948Z,65.17
2023-05-21T01:48:40.175Z,65.17
2023-05-21T01:51:06.740Z,65.43
2023-05-21T01:53:33.250Z,65.34
2023-05-21T01:56:00.771Z,65.35
2023-05-21T01:58:27.251Z,65.52
2023-05-21T02:00:53.732Z,65.67
2023-05-21T02:03:20.823Z,65.46
2023-05-21T02:05:47.702Z,65.66
2023-05-21T02:08:15.169Z,66.02
2023-05-21T02:10:42.038Z,65.86
2023-05-21T02:13:08.578Z,66.11
2023-05-21T02:15:35.459Z,66.19
2023-05-21T02:18:02.464Z,66.58
2023-05-21T02:20:29.005Z,66.47
2023-05-21T02:22:55.599Z,66.78
2023-05-21T02:25:21.962Z,66.95
2023-05-21T02:27:52.710Z,67.05
2023-05-21T02:30:19.257Z,67.30
2023-05-21T02:32:45.779Z,67.35
2023-05-21T02:35:13.224Z,67.58
2023-05-21T02:37:40.890Z,67.62
2023-05-21T02:40:09.726Z,67.68
2023-05-21T02:42:39.274Z,67.98
2023-05-21T02:45:11.567Z,68.02
2023-05-21T02:47:38.701Z,68.00
2023-05-21T02:50:07.388Z,68.02
2023-05-21T02:52:33.835Z,68.13
2023-05-21T02:55:00.328Z,67.99
2023-05-21T02:57:26.751Z,68.13
2023-05-21T02:59:53.151Z,68.32
2023-05-21T03:02:19.575Z,68.45
2023-05-21T03:04:46.503Z,68.30
2023-05-21T03:07:20.105Z,68.69
2023-05-21T03:09:47.159Z,68.72
2023-05-21T03:12:13.768Z,69.03
2023-05-21T03:14:40.361Z,69.27
2023-05-21T03:17:07.749Z,69.87
2023-05-21T03:19:35.861Z,69.87
2023-05-21T03:22:03.366Z,69.73
2023-05-21T03:24:33.122Z,70.08
2023-05-21T03:27:01.462Z,69.93
2023-05-21T03:29:28.374Z,69.90
2023-05-21T03:31:55.618Z,70.21
2023-05-21T03:34:22.418Z,70.09
2023-05-21T03:36:49.464Z,70.27
2023-05-21T03:39:16.165Z,70.24
2023-05-21T03:41:43.026Z,70.23
2023-05-21T03:44:09.693Z,70.54
2023-05-21T03:46:36.339Z,70.77
2023-05-21T03:49:02.880Z,70.81
2023-05-21T03:51:30.798Z,70.89
2023-05-21T03:53:59.069Z,71.08
2023-05-21T03:56:26.294Z,71.29
2023-05-21T03:58:53.004Z,71.40
2023-05-21T04:01:20.020Z,71.82
2023-05-21T04:03:47.697Z,71.85
2023-05-21T04:06:14.336Z,72.14
2023-05-21T04:08:40.907Z,72.35
2023-05-21T04:11:07.444Z,72.44
2023-05-21T04:13:33.877Z,72.17
2023-05-21T04:16:00.692Z,72.10
2023-05-21T04:18:27.200Z,72.44
2023-05-21T04:20:53.874Z,72.41
2023-05-21T04:23:23.336Z,72.62
2023-05-21T04:25:50.822Z,72.77
2023-05-21T04:28:21.025Z,72.90
2023-05-21T04:30:48.050Z,73.15
2023-05-21T04:33:18.134Z,73.13
2023-05-21T04:35:47.302Z,73.01
2023-05-21T04:38:14.069Z,73.06
2023-05-21T04:40:40.689Z,73.16
2023-05-21T04:43:08.035Z,72.76
2023-05-21T04:45:34.523Z,73.17
2023-05-21T04:48:01.227Z,73.19
2023-05-21T04:50:30.585Z,73.45
2023-05-21T04:52:58.886Z,73.43
2023-05-21T04:55:25.930Z,73.14
2023-05-21T04:57:52.843Z,73.38
2023-05-21T05:00:19.776Z,73.39
2023-05-21T05:02:46.473Z,73.55
2023-05-21T05:05:12.985Z,73.80
2023-05-21T05:07:39.430Z,73.66
2023-05-21T05:10:06.323Z,73.75
2023-05-21T05:12:32.798Z,73.84
2023-05-21T05:14:59.186Z,73.66
2023-05-21T05:17:25.731Z,73.90
2023-05-21T05:19:53.112Z,73.87
2023-05-21T05:22:19.685Z,73.83
2023-05-21T05:24:46.143Z,73.91
2023-05-21T05:27:12.581Z,74.21
2023-05-21T05:29:40.031Z,74.34
2023-05-21T05:32:07.259Z,74.26
2023-05-21T05:34:33.737Z,74.12
2023-05-21T05:37:00.257Z,74.23
2023-05-21T05:39:26.712Z,74.30
2023-05-21T05:41:53.146Z,74.18
2023-05-21T05:44:19.655Z,74.20
2023-05-21T05:46:46.234Z,74.21
2023-05-21T05:49:13.862Z,73.97
2023-05-21T05:51:40.968Z,73.90
2023-05-21T05:54:07.477Z,73.69
2023-05-21T05:56:34.055Z,73.72
2023-05-21T05:59:00.491Z,73.52
2023-05-21T06:01:26.921Z,73.61
2023-05-21T06:03:53.415Z,73.70
2023-05-21T06:06:20.244Z,73.47
2023-05-21T06:08:46.748Z,73.48
2023-05-21T06:11:17.074Z,73.01
2023-05-21T06:13:43.579Z,72.99
2023-05-21T06:16:10.387Z,72.32
2023-05-21T06:18:37.561Z,71.85
2023-05-21T06:21:04.084Z,71.80
2023-05-21T06:23:32.463Z,71.52
2023-05-21T06:25:58.967Z,71.06
2023-05-21T06:28:25.497Z,69.35
2023-05-21T06:30:51.976Z,67.72
2023-05-21T06:33:18.537Z,67.59
2023-05-21T06:35:45.006Z,67.61
2023-05-21T06:38:11.653Z,67.32
2023-05-21T06:40:38.140Z,67.25
2023-05-21T06:43:05.258Z,67.31
2023-05-21T06:45:31.757Z,67.23
2023-05-21T06:47:58.297Z,67.58
2023-05-21T06:50:24.772Z,66.65
2023-05-21T06:52:51.241Z,66.57
2023-05-21T06:55:17.714Z,66.25
2023-05-21T06:57:44.163Z,66.32
2023-05-21T07:00:12.713Z,66.12
2023-05-21T07:02:39.570Z,66.31
2023-05-21T07:05:06.424Z,66.37
2023-05-21T07:07:34.732Z,66.65
2023-05-21T07:10:01.229Z,66.55
2023-05-21T07:12:27.729Z,66.31
2023-05-21T07:14:54.442Z,66.56
2023-05-21T07:17:20.947Z,66.27
2023-05-21T07:19:47.412Z,66.24
2023-05-21T07:22:13.944Z,66.01
2023-05-21T07:24:40.383Z,64.98
2023-05-21T07:27:17.863Z,65.45
2023-05-21T07:29:51.722Z,65.20
2023-05-21T07:32:18.183Z,64.90
2023-05-21T07:34:44.700Z,64.24
2023-05-21T07:37:11.234Z,63.95
2023-05-21T07:39:37.849Z,63.82
2023-05-21T07:42:04.496Z,63.12
2023-05-21T07:44:31.979Z,63.03
2023-05-21T07:46:58.492Z,62.63
2023-05-21T07:49:24.918Z,62.66
2023-05-21T07:51:51.641Z,60.61
2023-05-21T07:54:18.256Z,61.76
2023-05-21T07:56:44.704Z,61.31
2023-05-21T07:59:13.751Z,60.98
2023-05-21T08:01:41.110Z,61.07
2023-05-21T08:04:07.886Z,60.82
2023-05-21T08:06:34.921Z,60.52
2023-05-21T08:09:04.021Z,59.66
2023-05-21T08:11:30.699Z,59.86
2023-05-21T08:13:57.232Z,59.05
2023-05-21T08:16:24.064Z,59.38
2023-05-21T08:18:50.986Z,59.96
2023-05-21T08:21:17.788Z,60.07
2023-05-21T08:23:44.700Z,59.57
2023-05-21T08:26:11.790Z,59.81
2023-05-21T08:28:39.027Z,59.33
2023-05-21T08:31:07.548Z,59.79
2023-05-21T08:33:37.196Z,58.24
2023-05-21T08:36:05.444Z,58.68
2023-05-21T08:38:32.055Z,59.65
2023-05-21T08:40:59.730Z,60.03
2023-05-21T08:43:29.796Z,59.65
2023-05-21T08:45:59.223Z,59.48
2023-05-21T08:48:26.042Z,59.03
2023-05-21T08:50:54.109Z,58.91
2023-05-21T08:53:27.963Z,59.34
2023-05-21T08:55:56.192Z,58.88
2023-05-21T08:58:22.968Z,58.08
2023-05-21T09:00:49.500Z,56.77
2023-05-21T09:03:16.661Z,56.41
2023-05-21T09:05:45.046Z,57.00
2023-05-21T09:08:21.753Z,56.40
2023-05-21T09:10:51.392Z,55.97
2023-05-21T09:13:19.286Z,54.14
2023-05-21T09:15:46.906Z,54.08
2023-05-21T09:18:14.133Z,55.84
2023-05-21T09:20:41.713Z,53.81
2023-05-21T09:23:16.416Z,53.80
2023-05-21T09:25:46.797Z,53.93
2023-05-21T09:28:15.168Z,53.59
2023-05-21T09:30:46.464Z,52.85
2023-05-21T09:33:13.236Z,53.23
2023-05-21T09:35:47.124Z,53.26
2023-05-21T09:38:13.567Z,52.31
2023-05-21T09:40:47.544Z,52.59
2023-05-21T09:43:16.060Z,52.36
2023-05-21T09:45:57.772Z,51.84
2023-05-21T09:48:42.424Z,51.34
2023-05-21T09:51:14.383Z,51.31
2023-05-21T09:53:45.139Z,51.80
2023-05-21T09:56:11.616Z,51.54
2023-05-21T09:58:38.601Z,50.19
2023-05-21T10:01:06.323Z,51.34
2023-05-21T10:03:38.700Z,50.87
2023-05-21T10:06:08.026Z,49.32
2023-05-21T10:08:38.502Z,50.20
2023-05-21T10:11:05.835Z,49.97
2023-05-21T10:13:39.558Z,49.65
2023-05-21T10:16:06.603Z,48.89
2023-05-21T10:18:33.664Z,49.55
2023-05-21T10:21:00.974Z,49.79
2023-05-21T10:23:29.015Z,50.77
2023-05-21T10:25:56.748Z,49.24
2023-05-21T10:28:24.135Z,48.79
2023-05-21T10:30:51.745Z,49.09
2023-05-21T10:33:18.304Z,48.90
2023-05-21T10:35:47.884Z,49.08
2023-05-21T10:38:16.732Z,48.39
2023-05-21T10:40:43.419Z,48.28
2023-05-21T10:43:40.744Z,48.27
2023-05-21T10:46:25.807Z,48.83
2023-05-21T10:49:25.344Z,50.45
2023-05-21T10:52:07.382Z,48.56
2023-05-21T10:54:55.684Z,49.05
2023-05-21T10:57:37.007Z,49.14
2023-05-21T11:00:06.056Z,49.45
2023-05-21T11:02:32.825Z,47.19
2023-05-21T11:05:00.776Z,48.72
2023-05-21T11:07:58.667Z,48.91
2023-05-21T11:10:41.446Z,48.40
2023-05-21T11:13:12.381Z,49.37
2023-05-21T11:15:57.564Z,48.18
2023-05-21T11:18:46.583Z,48.29
2023-05-21T11:21:17.579Z,49.60
2023-05-21T11:23:53.894Z,49.37
2023-05-21T11:26:24.743Z,47.84
2023-05-21T11:29:06.183Z,48.47
2023-05-21T11:31:38.446Z,45.91
2023-05-21T11:34:11.253Z,46.84
2023-05-21T11:36:38.682Z,45.67
2023-05-21T11:39:10.832Z,46.53
2023-05-21T11:42:03.773Z,46.67
2023-05-21T11:44:43.732Z,46.18
2023-05-21T11:47:12.281Z,45.37
2023-05-21T11:49:39.300Z,46.14
2023-05-21T11:52:07.332Z,45.68
2023-05-21T11:54:40.744Z,45.04
2023-05-21T11:57:08.016Z,44.98
2023-05-21T11:59:35.201Z,44.22
2023-05-21T12:02:02.950Z,44.97
2023-05-21T12:04:36.375Z,43.32
2023-05-21T12:07:07.364Z,43.90
2023-05-21T12:09:47.927Z,43.39
2023-05-21T12:12:16.863Z,43.74
2023-05-21T12:14:47.920Z,44.12
2023-05-21T12:17:19.739Z,44.49
2023-05-21T12:19:46.846Z,44.97
2023-05-21T12:22:15.429Z,42.76
2023-05-21T12:24:43.823Z,43.76
2023-05-21T12:27:13.213Z,42.86
2023-05-21T12:29:42.781Z,42.52
2023-05-21T12:32:19.854Z,42.71
2023-05-21T12:34:48.624Z,42.13
2023-05-21T12:37:17.544Z,42.61
2023-05-21T12:39:45.420Z,43.02
2023-05-21T12:42:12.740Z,43.35
2023-05-21T12:44:47.506Z,43.22
2023-05-21T12:47:14.250Z,43.69
2023-05-21T12:49:46.404Z,43.38
2023-05-21T12:52:13.626Z,44.65
2023-05-21T12:54:43.201Z,43.16
2023-05-21T12:57:18.433Z,42.62
2023-05-21T12:59:56.522Z,42.66
2023-05-21T13:02:27.403Z,42.64
2023-05-21T13:05:24.389Z,42.94
2023-05-21T13:07:51.576Z,42.86
2023-05-21T13:10:18.128Z,43.17
2023-05-21T13:12:45.256Z,43.46
2023-05-21T13:15:12.355Z,42.08
2023-05-21T13:17:38.863Z,41.35
2023-05-21T13:20:15.077Z,42.13
2023-05-21T13:22:42.985Z,41.47
2023-05-21T13:25:11.263Z,41.65
2023-05-21T13:27:38.526Z,41.20
2023-05-21T13:30:06.579Z,41.69
2023-05-21T13:32:33.009Z,42.07
2023-05-21T13:34:59.589Z,42.48
2023-05-21T13:37:26.354Z,42.16
2023-05-21T13:39:52.816Z,40.76
2023-05-21T13:42:19.777Z,41.37
2023-05-21T13:44:47.636Z,42.25
2023-05-21T13:47:14.110Z,42.67
2023-05-21T13:49:41.012Z,40.44
2023-05-21T13:52:08.955Z,41.90
2023-05-21T13:54:36.210Z,41.26
2023-05-21T13:57:03.366Z,39.99
2023-05-21T13:59:32.604Z,41.14
2023-05-21T14:02:00.347Z,42.24
2023-05-21T14:04:26.978Z,41.16
2023-05-21T14:06:53.786Z,40.80
2023-05-21T14:09:20.414Z,41.33
2023-05-21T14:11:47.075Z,41.40
2023-05-21T14:14:18.729Z,41.64
2023-05-21T14:16:48.646Z,41.04
2023-05-21T14:19:15.506Z,40.20
2023-05-21T14:21:42.613Z,40.88
2023-05-21T14:24:09.550Z,40.76
2023-05-21T14:26:37.779Z,40.69
2023-05-21T14:29:04.282Z,41.30
2023-05-21T14:31:30.979Z,41.49
2023-05-21T14:33:58.582Z,42.11
2023-05-21T14:36:25.041Z,41.69
2023-05-21T14:38:51.564Z,40.23
2023-05-21T14:41:18.061Z,40.46
2023-05-21T14:43:44.563Z,40.22
2023-05-21T14:46:11.095Z,40.99
2023-05-21T14:48:37.578Z,40.83
2023-05-21T14:51:04.074Z,41.67
2023-05-21T14:53:30.520Z,41.96
2023-05-21T14:55:56.985Z,42.79
2023-05-21T14:58:23.430Z,42.60
2023-05-21T15:00:49.881Z,41.80
2023-05-21T15:03:16.790Z,42.40
2023-05-21T15:05:43.285Z,41.00
2023-05-21T15:08:09.799Z,41.15
2023-05-21T15:10:36.265Z,42.09
2023-05-21T15:13:02.736Z,43.42
2023-05-21T15:15:29.194Z,42.79
2023-05-21T15:17:57.791Z,41.91
2023-05-21T15:20:24.394Z,41.66
2023-05-21T15:22:53.444Z,42.30
2023-05-21T15:25:21.474Z,43.41
2023-05-21T15:27:48.915Z,43.33
2023-05-21T15:30:17.118Z,43.32
2023-05-21T15:32:43.525Z,44.33
2023-05-21T15:35:10.142Z,43.68
2023-05-21T15:37:36.588Z,43.43
2023-05-21T15:40:03.227Z,43.83
2023-05-21T15:42:31.570Z,43.95
2023-05-21T15:44:58.279Z,43.98
2023-05-21T15:47:24.854Z,43.82
2023-05-21T15:49:51.588Z,43.57
2023-05-21T15:52:19.809Z,44.04
2023-05-21T15:54:46.967Z,43.73
2023-05-21T15:57:13.502Z,43.96
2023-05-21T15:59:40.139Z,44.16
2023-05-21T16:02:07.834Z,44.10
2023-05-21T16:04:34.595Z,44.60
2023-05-21T16:07:01.125Z,44.84
2023-05-21T16:09:27.606Z,45.00
2023-05-21T16:11:54.033Z,44.36
2023-05-21T16:14:20.620Z,44.80
2023-05-21T16:16:47.085Z,45.74
2023-05-21T16:19:13.607Z,46.23
2023-05-21T16:21:40.180Z,45.60
2023-05-21T16:24:06.732Z,46.41
2023-05-21T16:26:33.231Z,46.34
2023-05-21T16:29:02.256Z,46.14
2023-05-21T16:31:29.076Z,46.08
2023-05-21T16:33:55.793Z,46.18
2023-05-21T16:36:22.442Z,44.97
2023-05-21T16:38:48.961Z,45.26
2023-05-21T16:41:15.600Z,44.77
2023-05-21T16:43:42.114Z,45.64
2023-05-21T16:46:08.721Z,45.67
2023-05-21T16:48:37.358Z,45.49
2023-05-21T16:51:04.599Z,45.30
2023-05-21T16:53:31.020Z,45.13
2023-05-21T16:55:57.556Z,45.22
2023-05-21T16:58:24.452Z,45.30
2023-05-21T17:00:50.942Z,45.15
2023-05-21T17:03:17.535Z,45.27
2023-05-21T17:05:44.089Z,45.78
2023-05-21T17:08:10.509Z,46.14
2023-05-21T17:10:36.962Z,45.59
2023-05-21T17:13:17.690Z,46.08
2023-05-21T17:15:47.691Z,45.67
2023-05-21T17:18:14.286Z,45.88
2023-05-21T17:20:41.069Z,45.85
2023-05-21T17:23:07.592Z,46.45
2023-05-21T17:25:34.636Z,46.82
2023-05-21T17:28:01.366Z,47.08
2023-05-21T17:30:27.979Z,46.81
2023-05-21T17:32:54.623Z,46.74
2023-05-21T17:35:21.103Z,46.42
2023-05-21T17:37:48.058Z,47.22
2023-05-21T17:40:14.570Z,47.13
2023-05-21T17:42:41.064Z,47.68
2023-05-21T17:45:07.886Z,47.59
2023-05-21T17:47:34.556Z,47.30
2023-05-21T17:50:01.129Z,47.61
2023-05-21T17:52:27.570Z,47.97
2023-05-21T17:54:55.340Z,48.12
2023-05-21T17:57:21.795Z,48.44
2023-05-21T17:59:48.461Z,47.97
2023-05-21T18:02:14.993Z,48.79
2023-05-21T18:04:41.528Z,49.19
2023-05-21T18:07:08.058Z,49.19
2023-05-21T18:09:34.568Z,49.46
2023-05-21T18:12:02.895Z,50.78
2023-05-21T18:14:29.399Z,51.75
2023-05-21T18:16:56.014Z,52.66
2023-05-21T18:19:22.617Z,52.66
2023-05-21T18:21:49.503Z,53.54
2023-05-21T18:24:16.002Z,53.89
2023-05-21T18:26:43.444Z,54.35
2023-05-21T18:29:11.326Z,55.04
2023-05-21T18:31:37.936Z,55.13
2023-05-21T18:34:04.526Z,55.77
2023-05-21T18:36:38.389Z,56.29
2023-05-21T18:39:09.990Z,57.12
2023-05-21T18:41:37.329Z,57.14
2023-05-21T18:44:04.129Z,57.60
2023-05-21T18:46:31.669Z,58.04
2023-05-21T18:49:00.154Z,58.55
2023-05-21T18:51:26.631Z,58.96
2023-05-21T18:53:53.192Z,58.95
2023-05-21T18:56:19.637Z,59.24
2023-05-21T18:58:46.256Z,59.43
2023-05-21T19:01:13.069Z,59.69
2023-05-21T19:03:39.570Z,59.50
2023-05-21T19:06:06.007Z,60.23
2023-05-21T19:08:32.479Z,60.72
2023-05-21T19:10:58.983Z,61.59
2023-05-21T19:13:26.259Z,62.08
2023-05-21T19:15:52.769Z,62.29
2023-05-21T19:18:19.211Z,62.57
2023-05-21T19:20:45.603Z,62.67
2023-05-21T19:23:12.287Z,63.00
2023-05-21T19:25:38.728Z,63.57
2023-05-21T19:28:05.258Z,63.93
2023-05-21T19:30:34.891Z,63.98
2023-05-21T19:33:01.864Z,64.18
2023-05-21T19:35:28.541Z,64.51
2023-05-21T19:37:59.532Z,65.02
2023-05-21T19:40:27.138Z,65.53
2023-05-21T19:42:53.533Z,66.02
2023-05-21T19:45:21.486Z,66.22
2023-05-21T19:47:48.118Z,66.26
2023-05-21T19:50:14.576Z,66.69
2023-05-21T19:52:41.171Z,67.35
2023-05-21T19:55:10.182Z,67.87
2023-05-21T19:57:37.173Z,68.22
2023-05-21T20:00:05.339Z,68.62
2023-05-21T20:02:32.139Z,68.94
2023-05-21T20:04:59.227Z,68.98
2023-05-21T20:07:25.841Z,69.17
2023-05-21T20:09:52.449Z,69.75
2023-05-21T20:12:19.395Z,69.67
2023-05-21T20:14:47.429Z,69.84
2023-05-21T20:17:14.558Z,70.01
2023-05-21T20:19:41.244Z,70.56
2023-05-21T20:22:07.686Z,70.77
2023-05-21T20:24:34.160Z,71.09
2023-05-21T20:27:01.539Z,71.31
2023-05-21T20:29:28.746Z,71.97
2023-05-21T20:31:55.386Z,72.43
2023-05-21T20:34:21.924Z,72.79
2023-05-21T20:36:49.239Z,72.93
2023-05-21T20:39:16.086Z,73.22
2023-05-21T20:41:44.831Z,73.57
2023-05-21T20:44:12.045Z,73.34
2023-05-21T20:46:38.918Z,73.71
2023-05-21T20:49:05.892Z,74.11
2023-05-21T20:51:32.817Z,74.31
2023-05-21T20:53:59.319Z,74.68
2023-05-21T20:56:40.753Z,74.75
2023-05-21T20:59:09.929Z,74.77
2023-05-21T21:01:37.865Z,75.15
2023-05-21T21:04:05.064Z,75.54
2023-05-21T21:06:31.897Z,75.77
2023-05-21T21:08:58.558Z,75.86
2023-05-21T21:11:25.300Z,75.88
2023-05-21T21:13:51.951Z,75.89
2023-05-21T21:16:18.713Z,76.31
2023-05-21T21:18:46.897Z,76.60
2023-05-21T21:21:13.803Z,76.84
2023-05-21T21:23:40.660Z,77.10
2023-05-21T21:26:07.240Z,77.16
2023-05-21T21:28:33.737Z,77.46
2023-05-21T21:31:00.509Z,77.29
2023-05-21T21:33:27.056Z,77.24
2023-05-21T21:35:53.647Z,77.47
2023-05-21T21:38:20.304Z,77.96
2023-05-21T21:40:46.877Z,78.02
2023-05-21T21:43:13.382Z,77.66
2023-05-21T21:45:39.932Z,77.87
2023-05-21T21:48:06.851Z,78.10
2023-05-21T21:50:33.401Z,77.94
2023-05-21T21:53:01.118Z,78.52
2023-05-21T21:55:27.692Z,78.69
2023-05-21T21:57:54.265Z,78.73
2023-05-21T22:00:21.004Z,78.93
2023-05-21T22:02:47.617Z,79.08
2023-05-21T22:05:14.974Z,79.38
2023-05-21T22:07:47.847Z,79.50
2023-05-21T22:10:17.667Z,79.42
2023-05-21T22:12:45.927Z,79.38
2023-05-21T22:15:20.411Z,79.97
2023-05-21T22:17:48.294Z,80.08
2023-05-21T22:20:15.094Z,80.08
2023-05-21T22:22:41.508Z,80.26
2023-05-21T22:25:08.342Z,80.51
2023-05-21T22:27:34.972Z,80.52
2023-05-21T22:30:01.381Z,80.44
2023-05-21T22:32:27.835Z,80.23
2023-05-21T22:34:54.407Z,80.65
2023-05-21T22:37:21.206Z,81.13
2023-05-21T22:39:47.643Z,81.11
2023-05-21T22:42:14.119Z,81.32
2023-05-21T22:44:40.923Z,81.71
2023-05-21T22:47:09.364Z,82.24
2023-05-21T22:49:38.014Z,82.57
2023-05-21T22:52:06.235Z,82.59
2023-05-21T22:54:32.923Z,82.44
2023-05-21T22:57:01.091Z,82.31
2023-05-21T22:59:32.067Z,82.52
2023-05-21T23:01:59.119Z,82.25
2023-05-21T23:04:42.758Z,82.35
2023-05-21T23:07:10.787Z,82.22
2023-05-21T23:09:37.253Z,82.63
2023-05-21T23:12:04.066Z,82.84
2023-05-21T23:14:30.739Z,82.95
2023-05-21T23:17:02.166Z,83.10
2023-05-21T23:19:29.544Z,82.96
2023-05-21T23:21:56.453Z,83.00
2023-05-21T23:24:23.118Z,83.11
2023-05-21T23:26:49.845Z,83.36
2023-05-21T23:29:16.431Z,83.41
2023-05-21T23:31:43.675Z,83.66
2023-05-21T23:34:10.297Z,83.42
2023-05-21T23:36:36.794Z,83.65
2023-05-21T23:39:03.497Z,84.15
2023-05-21T23:41:30.073Z,85.07
2023-05-21T23:43:56.505Z,86.52
2023-05-21T23:46:23.299Z,87.84
2023-05-21T23:48:49.841Z,89.16
2023-05-21T23:51:18.214Z,89.98
2023-05-21T23:53:45.101Z,90.70
2023-05-21T23:56:11.535Z,91.33
2023-05-21T23:58:38.022Z,91.84
